Louis Armstrong New Orleans International Airport
KMSY : now visible

Airfield :











YOU CAN JOIN US ON...

 
LOGIN :

Register | Disclaimer

   EN    FR    IT 

 









Legend :    VFR   Marginal VFR   IFR   Intensive IFR   Very Intensive IFR
Visi :
Ceiling :
>= 8 km
>= 3000ft
5 to 8 km
1000 to 3000 ft
1500m to 5 km
500 to 1000 ft
800 to 1500m
200 to 500 ft
< 800m
< 200 ft
Symbols :   Thunderstorms  Fog  Heavy snow  Heavy precipitations  Wind > 20 kt






- Airport Elevation : 4 ft
- IATA code : MSY


KMSY - Louis Armstrong New Orleans International

CURRENT METAR :
  • 181353Z 12010KT 10SM FEW008 FEW025 SCT180 OVC250 24/22 A3002 RMK AO2 SLP170 T02440222

EXPIRED METARs :
  • 181253Z 11009KT 8SM FEW006 FEW023 BKN160 OVC250 23/22 A3002 RMK AO2 SLP170 T02330222
  • 181153Z 14006KT 7SM FEW028 BKN160 OVC250 23/22 A3004 RMK AO2 SLP175 T02280217 10233 20222 55001
  • 181053Z 12006KT 9SM FEW012 FEW033 BKN160 OVC250 23/22 A3003 RMK AO2 SLP170 T02280217
  • 180953Z 11009KT 9SM FEW012 SCT033 BKN160 OVC250 23/22 A3002 RMK AO2 SLP168 T02280222

TAF KMSY
Valid from the 18 at 12:00 until the 19 at 18:00 UTC


181122Z 1812/1918 12006KT P6SM FEW012 BKN160 OVC250
FM190900 VRB03KT 5SM BR BKN015
FM191500 VRB04KT P6SM FEW020 SCT250
KZHU FIR / North America



MET'MAP, your aeronautical weather chart ! - Copyright ORBIFLY December 2007 - Disclaimer

ORBIFLY MET'MAP TEAM :

Programming & Development : Alexandra Zaïnal
Original concept : Baudouin d'Aumeries
Technical & hardware support : Manuel Goepfert
Assistance : Marc-Olivier Méhu




SOURCES & CREDITS :

   NOAA       Earth
Advisory